• Join FlightAware (Why Join?)
  • Login
  • US Flag 
03:24AM EDT


 

Airport Tracker/Info


-or-


 

Live Flight TrackerFlight Track Log ✈ EGF3681 ✈ 05-Jul-2013 ✈ KORD - KDAY

Flight Track Log - Related Links

Times and Time Zones

All times are in EDT time to prevent confusion due to time zone crossing. See the EGF3681 flight status page for this flight to view local times or setup timezone preferences in your user account.

Time Position Orientation Groundspeed Altitude Reporting Facility
EDT Latitude Longitude Course Direction KTS MPH feet Rate Location/Type
11:37PM 41.9833 -87.9833 90° East 203 234 3,200  Level Chicago TRACON
11:38PM 41.9333 -88.0167 206° Southwest 257 296 5,600 2,400 Climbing Chicago TRACON
11:39PM 41.9667 -87.5348 90° East  Level FlightAware Approximate
11:39PM 41.9333 -87.9500 90° East 274 315 7,800  Level Chicago TRACON
11:40PM 41.9548 -87.4141 98° East  Level FlightAware Approximate
11:41PM 41.9448 -87.2932 95° East  Level FlightAware Approximate
11:41PM 41.9392 -87.7800 87° East 282 325 10,900  Level Chicago Center
11:42PM 41.9361 -87.1721 95° East  Level FlightAware Approximate
11:42PM 41.9389 -87.6531 90° East 326 375 12,100  Level Chicago Center
11:43PM 41.9333 -87.0491 90° East  Level FlightAware Approximate
11:43PM 41.9319 -87.5167 94° East 360 414 13,100  Level Chicago Center
11:44PM 41.9047 -87.3789 105° East 380 437 14,200 1,140 Climbing Chicago Center
11:45PM 41.8217 -87.2458 130° Southeast 384 442 15,400 1,140 Climbing Chicago Center
11:46PM 41.7525 -87.1325 129° Southeast 390 449 16,500 1,080 Climbing Chicago Center
11:47PM 41.6833 -87.0181 129° Southeast 394 453 17,600 900 Climbing Chicago Center
11:48PM 41.6125 -86.9033 130° Southeast 397 457 18,400 900 Climbing Chicago Center
11:49PM 41.5436 -86.7878 129° Southeast 399 459 19,500 960 Climbing Chicago Center
11:50PM 41.4836 -86.6906 129° Southeast 403 464 20,400 1,020 Climbing Chicago Center
11:51PM 41.3961 -86.5486 129° Southeast 411 473 21,600 1,020 Climbing Chicago Center
11:53PM 41.2606 -86.3300 129° Southeast 420 483 23,500 960 Climbing Indianapolis Center
11:54PM 41.1864 -86.2106 130° Southeast 420 483 24,500 720 Climbing Indianapolis Center
11:55PM 41.1117 -86.0928 130° Southeast 418 481 25,000 -60 Climbing Indianapolis Center
11:56PM 41.0339 -85.9700 130° Southeast 434 499 24,400 -900 Descending Indianapolis Center
11:57PM 40.9556 -85.8433 129° Southeast 443 510 23,300 -1,080 Descending Indianapolis Center
11:58PM 40.8761 -85.7189 130° Southeast 443 510 22,300 -1,020 Descending Indianapolis Center
11:59PM 40.7989 -85.5972 130° Southeast 434 499 21,300 -1,020 Descending Indianapolis Center
12:00AM 40.7239 -85.4797 130° Southeast 423 487 20,300 -1,140 Descending Indianapolis Center
12:01AM 40.6503 -85.3656 130° Southeast 412 474 19,100 -1,440 Descending Indianapolis Center
12:02AM 40.5608 -85.2258 130° Southeast 415 478 17,400 -1,440 Descending Indianapolis Center
12:03AM 40.5153 -85.1564 131° Southeast 404 465 16,700 -1,020 Descending Indianapolis Center
12:04AM 40.4242 -85.0119 130° Southeast 390 449 15,400 -1,140 Descending Indianapolis Center
12:05AM 40.3536 -84.9075 132° Southeast 387 445 14,100 -1,680 Descending Indianapolis Center
12:06AM 40.2908 -84.8103 130° Southeast 348 400 12,100 -1,920 Descending Indianapolis Center
12:07AM 40.2294 -84.7164 131° Southeast 303 349 10,300 -1,920 Descending Indianapolis Center
12:08AM 40.2114 -84.6142 103° East 291 335 8,300 -1,500 Descending Indianapolis Center
12:09AM 40.2092 -84.5175 92° East 264 304 7,300 -1,140 Descending Indianapolis Center
12:10AM 40.2081 -84.4294 91° East 232 267 6,100 -720 Descending Indianapolis Center
12:11AM 40.1983 -84.3453 99° East 236 272 5,900 -300 Descending Indianapolis Center
12:12AM 40.1494 -84.2897 139° Southeast 231 266 5,500 -600 Descending Indianapolis Center
12:13AM 40.0975 -84.2447 146° Southeast 225 259 4,800 -960 Descending Indianapolis Center
12:14AM 40.0389 -84.2206 162° South 214 246 3,600 -1,200 Descending Indianapolis Center